sensor_id;sensor_type;location;lat;lon;timestamp;temperature;humidity
45008;DHT22;30743;52.008;5.644;2024-02-15T00:01:30;15.60;99.90
45008;DHT22;30743;52.008;5.644;2024-02-15T00:03:56;17.10;99.90
45008;DHT22;30743;52.008;5.644;2024-02-15T00:06:22;15.70;99.90
45008;DHT22;30743;52.008;5.644;2024-02-15T00:08:48;16.60;99.90
45008;DHT22;30743;52.008;5.644;2024-02-15T00:11:17;16.70;99.90
45008;DHT22;30743;52.008;5.644;2024-02-15T00:13:43;16.00;99.90
45008;DHT22;30743;52.008;5.644;2024-02-15T00:16:13;16.50;99.90
45008;DHT22;30743;52.008;5.644;2024-02-15T00:18:39;16.20;99.90
45008;DHT22;30743;52.008;5.644;2024-02-15T00:21:05;16.10;99.90
45008;DHT22;30743;52.008;5.644;2024-02-15T00:23:30;16.30;99.90
45008;DHT22;30743;52.008;5.644;2024-02-15T00:25:58;17.50;99.90
45008;DHT22;30743;52.008;5.644;2024-02-15T00:28:23;16.50;99.90
45008;DHT22;30743;52.008;5.644;2024-02-15T00:30:49;16.50;99.90
45008;DHT22;30743;52.008;5.644;2024-02-15T00:33:15;16.50;99.90
45008;DHT22;30743;52.008;5.644;2024-02-15T00:35:42;16.50;99.90
45008;DHT22;30743;52.008;5.644;2024-02-15T00:38:07;16.50;99.90
45008;DHT22;30743;52.008;5.644;2024-02-15T00:40:33;16.40;99.90
45008;DHT22;30743;52.008;5.644;2024-02-15T00:42:58;16.10;99.90
45008;DHT22;30743;52.008;5.644;2024-02-15T00:45:24;16.20;99.90
45008;DHT22;30743;52.008;5.644;2024-02-15T00:47:50;16.30;99.90
45008;DHT22;30743;52.008;5.644;2024-02-15T00:50:16;16.30;99.90
45008;DHT22;30743;52.008;5.644;2024-02-15T00:52:41;17.70;99.90
45008;DHT22;30743;52.008;5.644;2024-02-15T00:55:07;17.20;99.90
45008;DHT22;30743;52.008;5.644;2024-02-15T00:57:33;16.60;99.90
45008;DHT22;30743;52.008;5.644;2024-02-15T00:59:58;16.60;99.90
45008;DHT22;30743;52.008;5.644;2024-02-15T01:02:25;16.40;99.90
45008;DHT22;30743;52.008;5.644;2024-02-15T01:04:51;17.70;99.90
45008;DHT22;30743;52.008;5.644;2024-02-15T01:07:19;16.30;99.90
45008;DHT22;30743;52.008;5.644;2024-02-15T01:09:44;16.10;99.90
45008;DHT22;30743;52.008;5.644;2024-02-15T01:12:10;16.20;99.90
45008;DHT22;30743;52.008;5.644;2024-02-15T01:14:37;16.10;99.90
45008;DHT22;30743;52.008;5.644;2024-02-15T01:17:03;16.10;99.90
45008;DHT22;30743;52.008;5.644;2024-02-15T01:19:29;16.20;99.90
45008;DHT22;30743;52.008;5.644;2024-02-15T01:21:54;16.30;99.90
45008;DHT22;30743;52.008;5.644;2024-02-15T01:24:20;16.80;99.90
45008;DHT22;30743;52.008;5.644;2024-02-15T01:26:45;16.30;99.90
45008;DHT22;30743;52.008;5.644;2024-02-15T01:29:13;16.30;99.90
45008;DHT22;30743;52.008;5.644;2024-02-15T01:31:39;16.20;99.90
45008;DHT22;30743;52.008;5.644;2024-02-15T01:34:04;16.20;99.90
45008;DHT22;30743;52.008;5.644;2024-02-15T01:36:30;16.10;99.90
45008;DHT22;30743;52.008;5.644;2024-02-15T01:38:56;16.00;99.90
45008;DHT22;30743;52.008;5.644;2024-02-15T01:41:21;15.90;99.90
45008;DHT22;30743;52.008;5.644;2024-02-15T01:43:47;16.00;99.90
45008;DHT22;30743;52.008;5.644;2024-02-15T01:46:15;16.10;99.90
45008;DHT22;30743;52.008;5.644;2024-02-15T01:48:42;16.80;99.90
45008;DHT22;30743;52.008;5.644;2024-02-15T01:51:10;16.40;99.90
45008;DHT22;30743;52.008;5.644;2024-02-15T01:53:37;16.40;99.90
45008;DHT22;30743;52.008;5.644;2024-02-15T01:56:03;16.00;99.90
45008;DHT22;30743;52.008;5.644;2024-02-15T01:58:29;16.00;99.90
45008;DHT22;30743;52.008;5.644;2024-02-15T02:00:57;16.10;99.90
45008;DHT22;30743;52.008;5.644;2024-02-15T02:03:24;16.10;99.90
45008;DHT22;30743;52.008;5.644;2024-02-15T02:05:49;16.10;99.90
45008;DHT22;30743;52.008;5.644;2024-02-15T02:08:15;16.30;99.90
45008;DHT22;30743;52.008;5.644;2024-02-15T02:10:40;16.00;99.90
45008;DHT22;30743;52.008;5.644;2024-02-15T02:13:06;16.20;99.90
45008;DHT22;30743;52.008;5.644;2024-02-15T02:15:32;16.10;99.90
45008;DHT22;30743;52.008;5.644;2024-02-15T02:17:58;16.30;99.90
45008;DHT22;30743;52.008;5.644;2024-02-15T02:20:25;16.70;99.90
45008;DHT22;30743;52.008;5.644;2024-02-15T02:22:53;17.30;99.90
45008;DHT22;30743;52.008;5.644;2024-02-15T02:25:20;17.90;99.90
45008;DHT22;30743;52.008;5.644;2024-02-15T02:27:47;16.80;99.90
45008;DHT22;30743;52.008;5.644;2024-02-15T02:30:15;16.50;99.90
45008;DHT22;30743;52.008;5.644;2024-02-15T02:32:44;16.50;99.90
45008;DHT22;30743;52.008;5.644;2024-02-15T02:35:11;17.30;99.90
45008;DHT22;30743;52.008;5.644;2024-02-15T02:37:41;16.60;99.90
45008;DHT22;30743;52.008;5.644;2024-02-15T02:40:07;16.60;99.90
45008;DHT22;30743;52.008;5.644;2024-02-15T02:42:46;16.80;99.90
45008;DHT22;30743;52.008;5.644;2024-02-15T02:45:11;16.70;99.90
45008;DHT22;30743;52.008;5.644;2024-02-15T02:47:37;16.60;99.90
45008;DHT22;30743;52.008;5.644;2024-02-15T02:50:02;16.50;99.90
45008;DHT22;30743;52.008;5.644;2024-02-15T02:52:28;16.60;99.90
45008;DHT22;30743;52.008;5.644;2024-02-15T02:54:54;16.40;99.90
45008;DHT22;30743;52.008;5.644;2024-02-15T02:57:19;16.40;99.90
45008;DHT22;30743;52.008;5.644;2024-02-15T02:59:45;16.60;99.90
45008;DHT22;30743;52.008;5.644;2024-02-15T03:02:12;16.60;99.90
45008;DHT22;30743;52.008;5.644;2024-02-15T03:04:38;16.60;99.90
45008;DHT22;30743;52.008;5.644;2024-02-15T03:07:05;16.70;99.90
45008;DHT22;30743;52.008;5.644;2024-02-15T03:09:31;16.80;99.90
45008;DHT22;30743;52.008;5.644;2024-02-15T03:11:57;16.40;99.90
45008;DHT22;30743;52.008;5.644;2024-02-15T03:14:22;16.80;99.90
45008;DHT22;30743;52.008;5.644;2024-02-15T03:16:48;16.30;99.90
45008;DHT22;30743;52.008;5.644;2024-02-15T03:19:14;16.90;99.90
45008;DHT22;30743;52.008;5.644;2024-02-15T03:21:39;16.30;99.90
45008;DHT22;30743;52.008;5.644;2024-02-15T03:24:07;16.40;99.90
45008;DHT22;30743;52.008;5.644;2024-02-15T03:26:32;16.40;99.90
45008;DHT22;30743;52.008;5.644;2024-02-15T03:29:03;17.20;99.90
45008;DHT22;30743;52.008;5.644;2024-02-15T03:31:29;16.40;99.90
45008;DHT22;30743;52.008;5.644;2024-02-15T03:33:57;16.50;99.90
45008;DHT22;30743;52.008;5.644;2024-02-15T03:36:22;17.80;99.90
45008;DHT22;30743;52.008;5.644;2024-02-15T03:38:48;16.60;99.90
45008;DHT22;30743;52.008;5.644;2024-02-15T03:41:14;17.50;99.90
45008;DHT22;30743;52.008;5.644;2024-02-15T03:43:40;17.80;99.90
45008;DHT22;30743;52.008;5.644;2024-02-15T03:46:05;16.70;99.90
45008;DHT22;30743;52.008;5.644;2024-02-15T03:48:34;16.70;99.90
45008;DHT22;30743;52.008;5.644;2024-02-15T03:51:00;16.80;99.90
45008;DHT22;30743;52.008;5.644;2024-02-15T03:53:27;16.70;99.90
45008;DHT22;30743;52.008;5.644;2024-02-15T03:55:55;17.30;99.90
45008;DHT22;30743;52.008;5.644;2024-02-15T03:58:21;16.60;99.90
45008;DHT22;30743;52.008;5.644;2024-02-15T04:00:47;16.50;99.90
45008;DHT22;30743;52.008;5.644;2024-02-15T04:03:12;16.40;99.90
45008;DHT22;30743;52.008;5.644;2024-02-15T04:05:38;17.40;99.90
45008;DHT22;30743;52.008;5.644;2024-02-15T04:08:05;16.40;99.90
45008;DHT22;30743;52.008;5.644;2024-02-15T04:10:30;16.20;99.90
45008;DHT22;30743;52.008;5.644;2024-02-15T04:12:56;17.00;99.90
45008;DHT22;30743;52.008;5.644;2024-02-15T04:15:23;16.30;99.90
45008;DHT22;30743;52.008;5.644;2024-02-15T04:17:49;16.20;99.90
45008;DHT22;30743;52.008;5.644;2024-02-15T04:20:21;16.20;99.90
45008;DHT22;30743;52.008;5.644;2024-02-15T04:22:47;16.20;99.90
45008;DHT22;30743;52.008;5.644;2024-02-15T04:25:15;16.60;99.90
45008;DHT22;30743;52.008;5.644;2024-02-15T04:27:46;16.30;99.90
45008;DHT22;30743;52.008;5.644;2024-02-15T04:30:17;16.00;99.90
45008;DHT22;30743;52.008;5.644;2024-02-15T04:32:43;16.00;99.90
45008;DHT22;30743;52.008;5.644;2024-02-15T04:35:08;16.00;99.90
45008;DHT22;30743;52.008;5.644;2024-02-15T04:37:35;16.10;99.90
45008;DHT22;30743;52.008;5.644;2024-02-15T04:40:03;16.00;99.90
45008;DHT22;30743;52.008;5.644;2024-02-15T04:42:36;16.00;99.90
45008;DHT22;30743;52.008;5.644;2024-02-15T04:45:06;16.10;99.90
45008;DHT22;30743;52.008;5.644;2024-02-15T04:47:35;16.20;99.90
45008;DHT22;30743;52.008;5.644;2024-02-15T04:50:01;16.00;99.90
45008;DHT22;30743;52.008;5.644;2024-02-15T04:52:27;16.10;99.90
45008;DHT22;30743;52.008;5.644;2024-02-15T04:54:53;16.70;99.90
45008;DHT22;30743;52.008;5.644;2024-02-15T04:57:20;16.10;99.90
45008;DHT22;30743;52.008;5.644;2024-02-15T04:59:45;16.10;99.90
45008;DHT22;30743;52.008;5.644;2024-02-15T05:02:14;16.30;99.90
45008;DHT22;30743;52.008;5.644;2024-02-15T05:04:39;16.50;99.90
45008;DHT22;30743;52.008;5.644;2024-02-15T05:07:08;16.30;99.90
45008;DHT22;30743;52.008;5.644;2024-02-15T05:09:34;16.30;99.90
45008;DHT22;30743;52.008;5.644;2024-02-15T05:12:00;16.10;99.90
45008;DHT22;30743;52.008;5.644;2024-02-15T05:14:28;16.10;99.90
45008;DHT22;30743;52.008;5.644;2024-02-15T05:16:53;16.00;99.90
45008;DHT22;30743;52.008;5.644;2024-02-15T05:19:19;16.00;99.90
45008;DHT22;30743;52.008;5.644;2024-02-15T05:21:45;17.30;99.90
45008;DHT22;30743;52.008;5.644;2024-02-15T05:24:12;17.10;99.90
45008;DHT22;30743;52.008;5.644;2024-02-15T05:26:39;16.10;99.90
45008;DHT22;30743;52.008;5.644;2024-02-15T05:29:05;15.80;99.90
45008;DHT22;30743;52.008;5.644;2024-02-15T05:31:30;15.70;99.90
45008;DHT22;30743;52.008;5.644;2024-02-15T05:33:56;15.70;99.90
45008;DHT22;30743;52.008;5.644;2024-02-15T05:36:23;17.00;99.90
45008;DHT22;30743;52.008;5.644;2024-02-15T05:38:53;15.60;99.90
45008;DHT22;30743;52.008;5.644;2024-02-15T05:41:20;15.70;99.90
45008;DHT22;30743;52.008;5.644;2024-02-15T05:43:46;15.80;99.90
45008;DHT22;30743;52.008;5.644;2024-02-15T05:46:14;15.80;99.90
45008;DHT22;30743;52.008;5.644;2024-02-15T05:48:40;15.50;99.90
45008;DHT22;30743;52.008;5.644;2024-02-15T05:51:07;15.50;99.90
45008;DHT22;30743;52.008;5.644;2024-02-15T05:53:34;15.50;99.90
45008;DHT22;30743;52.008;5.644;2024-02-15T05:56:10;15.60;99.90
45008;DHT22;30743;52.008;5.644;2024-02-15T05:58:36;15.70;99.90
45008;DHT22;30743;52.008;5.644;2024-02-15T06:01:03;15.60;99.90
45008;DHT22;30743;52.008;5.644;2024-02-15T06:03:33;15.70;99.90
45008;DHT22;30743;52.008;5.644;2024-02-15T06:06:03;16.60;99.90
45008;DHT22;30743;52.008;5.644;2024-02-15T06:08:33;15.50;99.90
45008;DHT22;30743;52.008;5.644;2024-02-15T06:10:59;16.20;99.90
45008;DHT22;30743;52.008;5.644;2024-02-15T06:13:26;17.00;99.90
45008;DHT22;30743;52.008;5.644;2024-02-15T06:15:52;15.30;99.90
45008;DHT22;30743;52.008;5.644;2024-02-15T06:18:24;15.80;99.90
45008;DHT22;30743;52.008;5.644;2024-02-15T06:20:56;15.30;99.90
45008;DHT22;30743;52.008;5.644;2024-02-15T06:23:23;15.40;99.90
45008;DHT22;30743;52.008;5.644;2024-02-15T06:25:51;15.30;99.90
45008;DHT22;30743;52.008;5.644;2024-02-15T06:28:18;15.40;99.90
45008;DHT22;30743;52.008;5.644;2024-02-15T06:31:02;15.50;99.90
45008;DHT22;30743;52.008;5.644;2024-02-15T06:33:46;15.50;99.90
45008;DHT22;30743;52.008;5.644;2024-02-15T06:36:30;15.60;99.90
45008;DHT22;30743;52.008;5.644;2024-02-15T06:39:14;15.60;99.90
45008;DHT22;30743;52.008;5.644;2024-02-15T06:41:59;15.80;99.90
45008;DHT22;30743;52.008;5.644;2024-02-15T06:44:26;15.80;99.90
45008;DHT22;30743;52.008;5.644;2024-02-15T06:46:52;15.80;99.90
45008;DHT22;30743;52.008;5.644;2024-02-15T06:49:17;15.80;99.90
45008;DHT22;30743;52.008;5.644;2024-02-15T06:51:43;15.80;99.90
45008;DHT22;30743;52.008;5.644;2024-02-15T06:54:09;15.60;99.90
45008;DHT22;30743;52.008;5.644;2024-02-15T06:56:38;15.40;99.90
45008;DHT22;30743;52.008;5.644;2024-02-15T06:59:08;15.60;99.90
45008;DHT22;30743;52.008;5.644;2024-02-15T07:01:34;15.50;99.90
45008;DHT22;30743;52.008;5.644;2024-02-15T07:04:00;16.90;99.90
45008;DHT22;30743;52.008;5.644;2024-02-15T07:06:26;15.70;99.90
45008;DHT22;30743;52.008;5.644;2024-02-15T07:08:52;17.10;99.90
45008;DHT22;30743;52.008;5.644;2024-02-15T07:11:20;16.30;99.90
45008;DHT22;30743;52.008;5.644;2024-02-15T07:13:47;17.10;99.90
45008;DHT22;30743;52.008;5.644;2024-02-15T07:16:12;15.70;99.90
45008;DHT22;30743;52.008;5.644;2024-02-15T07:18:40;16.20;99.90
45008;DHT22;30743;52.008;5.644;2024-02-15T07:21:06;15.70;99.90
45008;DHT22;30743;52.008;5.644;2024-02-15T07:23:39;16.00;99.90
45008;DHT22;30743;52.008;5.644;2024-02-15T07:26:06;15.90;99.90
45008;DHT22;30743;52.008;5.644;2024-02-15T07:28:32;16.00;99.90
45008;DHT22;30743;52.008;5.644;2024-02-15T07:30:58;16.10;99.90
45008;DHT22;30743;52.008;5.644;2024-02-15T07:33:23;15.90;99.90
45008;DHT22;30743;52.008;5.644;2024-02-15T07:35:49;15.90;99.90
45008;DHT22;30743;52.008;5.644;2024-02-15T07:38:19;16.10;99.90
45008;DHT22;30743;52.008;5.644;2024-02-15T07:40:45;16.30;99.90
45008;DHT22;30743;52.008;5.644;2024-02-15T07:43:10;17.10;99.90
45008;DHT22;30743;52.008;5.644;2024-02-15T07:45:36;16.20;99.90
45008;DHT22;30743;52.008;5.644;2024-02-15T07:48:06;16.90;99.90
45008;DHT22;30743;52.008;5.644;2024-02-15T07:50:31;16.20;99.90
45008;DHT22;30743;52.008;5.644;2024-02-15T07:52:57;16.20;99.90
45008;DHT22;30743;52.008;5.644;2024-02-15T07:55:23;16.20;99.90
45008;DHT22;30743;52.008;5.644;2024-02-15T07:57:50;16.20;99.90
45008;DHT22;30743;52.008;5.644;2024-02-15T08:00:16;16.10;99.90
45008;DHT22;30743;52.008;5.644;2024-02-15T08:02:45;16.10;99.90
45008;DHT22;30743;52.008;5.644;2024-02-15T08:05:11;16.60;99.90
45008;DHT22;30743;52.008;5.644;2024-02-15T08:07:40;16.30;99.90
45008;DHT22;30743;52.008;5.644;2024-02-15T08:10:06;16.90;99.90
45008;DHT22;30743;52.008;5.644;2024-02-15T08:12:44;16.70;99.90
45008;DHT22;30743;52.008;5.644;2024-02-15T08:15:10;16.80;99.90
45008;DHT22;30743;52.008;5.644;2024-02-15T08:17:38;16.80;99.90
45008;DHT22;30743;52.008;5.644;2024-02-15T08:20:14;17.30;99.90
45008;DHT22;30743;52.008;5.644;2024-02-15T08:22:41;16.70;99.90
45008;DHT22;30743;52.008;5.644;2024-02-15T08:25:11;16.60;99.90
45008;DHT22;30743;52.008;5.644;2024-02-15T08:27:41;16.50;99.90
45008;DHT22;30743;52.008;5.644;2024-02-15T08:30:10;16.70;99.90
45008;DHT22;30743;52.008;5.644;2024-02-15T08:32:40;16.70;99.90
45008;DHT22;30743;52.008;5.644;2024-02-15T08:35:08;16.80;99.90
45008;DHT22;30743;52.008;5.644;2024-02-15T08:37:34;16.90;99.90
45008;DHT22;30743;52.008;5.644;2024-02-15T08:40:03;16.90;99.90
45008;DHT22;30743;52.008;5.644;2024-02-15T08:42:29;16.80;99.90
45008;DHT22;30743;52.008;5.644;2024-02-15T08:44:54;16.30;99.90
45008;DHT22;30743;52.008;5.644;2024-02-15T08:47:20;16.10;99.90
45008;DHT22;30743;52.008;5.644;2024-02-15T08:49:46;15.60;99.90
45008;DHT22;30743;52.008;5.644;2024-02-15T08:52:12;15.40;99.90
45008;DHT22;30743;52.008;5.644;2024-02-15T08:54:37;15.30;99.90
45008;DHT22;30743;52.008;5.644;2024-02-15T08:57:06;15.30;99.90
45008;DHT22;30743;52.008;5.644;2024-02-15T08:59:32;15.40;99.90
45008;DHT22;30743;52.008;5.644;2024-02-15T09:01:58;15.90;99.90
45008;DHT22;30743;52.008;5.644;2024-02-15T09:04:25;16.60;99.90
45008;DHT22;30743;52.008;5.644;2024-02-15T09:06:51;15.50;99.90
45008;DHT22;30743;52.008;5.644;2024-02-15T09:09:17;16.60;99.90
45008;DHT22;30743;52.008;5.644;2024-02-15T09:11:43;15.20;99.90
45008;DHT22;30743;52.008;5.644;2024-02-15T09:14:08;15.40;99.90
45008;DHT22;30743;52.008;5.644;2024-02-15T09:16:37;15.50;99.90
45008;DHT22;30743;52.008;5.644;2024-02-15T09:19:02;15.40;99.90
45008;DHT22;30743;52.008;5.644;2024-02-15T09:21:28;15.50;99.90
45008;DHT22;30743;52.008;5.644;2024-02-15T09:23:55;15.60;99.90
45008;DHT22;30743;52.008;5.644;2024-02-15T09:26:21;15.60;99.90
45008;DHT22;30743;52.008;5.644;2024-02-15T09:28:47;15.70;99.90
45008;DHT22;30743;52.008;5.644;2024-02-15T09:31:13;15.70;99.90
45008;DHT22;30743;52.008;5.644;2024-02-15T09:33:39;15.70;99.90
45008;DHT22;30743;52.008;5.644;2024-02-15T09:36:05;15.90;99.90
45008;DHT22;30743;52.008;5.644;2024-02-15T09:38:31;15.80;99.90
45008;DHT22;30743;52.008;5.644;2024-02-15T09:40:57;15.70;99.90
45008;DHT22;30743;52.008;5.644;2024-02-15T09:43:22;15.60;99.90
45008;DHT22;30743;52.008;5.644;2024-02-15T09:45:52;15.50;99.90
45008;DHT22;30743;52.008;5.644;2024-02-15T09:48:18;15.50;99.90
45008;DHT22;30743;52.008;5.644;2024-02-15T09:50:45;15.50;99.90
45008;DHT22;30743;52.008;5.644;2024-02-15T09:53:12;15.50;99.90
45008;DHT22;30743;52.008;5.644;2024-02-15T09:55:39;15.60;99.90
45008;DHT22;30743;52.008;5.644;2024-02-15T09:58:07;15.60;99.90
45008;DHT22;30743;52.008;5.644;2024-02-15T10:00:35;15.80;99.90
45008;DHT22;30743;52.008;5.644;2024-02-15T10:03:02;15.90;99.90
45008;DHT22;30743;52.008;5.644;2024-02-15T10:05:30;15.80;99.90
45008;DHT22;30743;52.008;5.644;2024-02-15T10:07:56;17.10;99.90
45008;DHT22;30743;52.008;5.644;2024-02-15T10:10:23;16.00;99.90
45008;DHT22;30743;52.008;5.644;2024-02-15T10:12:51;16.00;99.90
45008;DHT22;30743;52.008;5.644;2024-02-15T10:15:38;16.10;99.90
45008;DHT22;30743;52.008;5.644;2024-02-15T10:18:05;16.00;99.90
45008;DHT22;30743;52.008;5.644;2024-02-15T10:20:34;16.00;99.90
45008;DHT22;30743;52.008;5.644;2024-02-15T10:25:29;16.00;99.90
45008;DHT22;30743;52.008;5.644;2024-02-15T10:28:04;15.90;99.90
45008;DHT22;30743;52.008;5.644;2024-02-15T10:30:40;15.90;99.90
45008;DHT22;30743;52.008;5.644;2024-02-15T10:33:09;16.00;99.90
45008;DHT22;30743;52.008;5.644;2024-02-15T10:35:34;16.00;99.90
45008;DHT22;30743;52.008;5.644;2024-02-15T10:38:10;16.00;99.90
45008;DHT22;30743;52.008;5.644;2024-02-15T10:40:37;16.00;99.90
45008;DHT22;30743;52.008;5.644;2024-02-15T10:43:03;16.20;99.90
45008;DHT22;30743;52.008;5.644;2024-02-15T10:45:31;16.20;99.90
45008;DHT22;30743;52.008;5.644;2024-02-15T10:47:57;16.40;99.90
45008;DHT22;30743;52.008;5.644;2024-02-15T10:50:23;17.00;99.90
45008;DHT22;30743;52.008;5.644;2024-02-15T10:52:59;16.70;99.90
45008;DHT22;30743;52.008;5.644;2024-02-15T10:55:38;16.40;99.90
45008;DHT22;30743;52.008;5.644;2024-02-15T10:58:06;16.20;99.90
45008;DHT22;30743;52.008;5.644;2024-02-15T11:00:35;16.20;99.90
45008;DHT22;30743;52.008;5.644;2024-02-15T11:03:07;16.80;99.90
45008;DHT22;30743;52.008;5.644;2024-02-15T11:05:37;16.40;99.90
45008;DHT22;30743;52.008;5.644;2024-02-15T11:08:07;16.20;99.90
45008;DHT22;30743;52.008;5.644;2024-02-15T11:10:35;16.30;99.90
45008;DHT22;30743;52.008;5.644;2024-02-15T11:13:01;16.10;99.90
45008;DHT22;30743;52.008;5.644;2024-02-15T11:15:44;16.30;99.90
45008;DHT22;30743;52.008;5.644;2024-02-15T11:18:12;16.40;99.90
45008;DHT22;30743;52.008;5.644;2024-02-15T11:23:04;17.80;99.90
45008;DHT22;30743;52.008;5.644;2024-02-15T11:25:39;16.80;99.90
45008;DHT22;30743;52.008;5.644;2024-02-15T11:30:52;16.80;99.90
45008;DHT22;30743;52.008;5.644;2024-02-15T11:33:33;16.70;99.90
45008;DHT22;30743;52.008;5.644;2024-02-15T11:36:12;16.60;99.90
45008;DHT22;30743;52.008;5.644;2024-02-15T11:38:41;16.70;99.90
45008;DHT22;30743;52.008;5.644;2024-02-15T11:41:09;16.70;99.90
45008;DHT22;30743;52.008;5.644;2024-02-15T11:43:50;17.40;99.90
45008;DHT22;30743;52.008;5.644;2024-02-15T11:46:26;16.70;99.90
45008;DHT22;30743;52.008;5.644;2024-02-15T11:48:56;16.70;99.90
45008;DHT22;30743;52.008;5.644;2024-02-15T11:51:32;16.70;99.90
45008;DHT22;30743;52.008;5.644;2024-02-15T11:54:09;16.70;99.90
45008;DHT22;30743;52.008;5.644;2024-02-15T11:56:55;16.70;99.90
45008;DHT22;30743;52.008;5.644;2024-02-15T11:59:43;16.90;99.90
45008;DHT22;30743;52.008;5.644;2024-02-15T12:02:27;17.00;99.90
45008;DHT22;30743;52.008;5.644;2024-02-15T12:05:11;17.10;99.90
45008;DHT22;30743;52.008;5.644;2024-02-15T12:07:56;17.20;99.90
45008;DHT22;30743;52.008;5.644;2024-02-15T12:10:40;18.40;99.90
45008;DHT22;30743;52.008;5.644;2024-02-15T12:13:24;17.60;99.90
45008;DHT22;30743;52.008;5.644;2024-02-15T12:16:08;17.60;99.90
45008;DHT22;30743;52.008;5.644;2024-02-15T12:18:52;17.70;99.90
45008;DHT22;30743;52.008;5.644;2024-02-15T12:21:24;18.00;99.90
45008;DHT22;30743;52.008;5.644;2024-02-15T12:23:52;17.60;99.90
45008;DHT22;30743;52.008;5.644;2024-02-15T12:26:21;18.00;99.90
45008;DHT22;30743;52.008;5.644;2024-02-15T12:28:52;17.80;99.90
45008;DHT22;30743;52.008;5.644;2024-02-15T12:31:24;18.40;99.90
45008;DHT22;30743;52.008;5.644;2024-02-15T12:34:04;17.80;99.90
45008;DHT22;30743;52.008;5.644;2024-02-15T12:36:34;17.90;99.90
45008;DHT22;30743;52.008;5.644;2024-02-15T12:39:03;18.20;99.90
45008;DHT22;30743;52.008;5.644;2024-02-15T12:41:38;18.30;99.90
45008;DHT22;30743;52.008;5.644;2024-02-15T12:44:06;19.40;99.90
45008;DHT22;30743;52.008;5.644;2024-02-15T12:46:34;19.90;99.90
45008;DHT22;30743;52.008;5.644;2024-02-15T12:51:51;19.70;99.90
45008;DHT22;30743;52.008;5.644;2024-02-15T12:54:23;20.90;99.90
45008;DHT22;30743;52.008;5.644;2024-02-15T12:56:49;20.10;99.90
45008;DHT22;30743;52.008;5.644;2024-02-15T12:59:17;20.80;99.90
45008;DHT22;30743;52.008;5.644;2024-02-15T13:01:44;20.10;99.90
45008;DHT22;30743;52.008;5.644;2024-02-15T13:04:24;19.90;99.90
45008;DHT22;30743;52.008;5.644;2024-02-15T13:06:54;20.00;99.90
45008;DHT22;30743;52.008;5.644;2024-02-15T13:09:19;20.30;99.90
45008;DHT22;30743;52.008;5.644;2024-02-15T13:11:48;19.90;99.90
45008;DHT22;30743;52.008;5.644;2024-02-15T13:14:15;19.70;99.90
45008;DHT22;30743;52.008;5.644;2024-02-15T13:16:41;19.60;99.90
45008;DHT22;30743;52.008;5.644;2024-02-15T13:19:08;19.30;99.90
45008;DHT22;30743;52.008;5.644;2024-02-15T13:21:34;19.40;99.90
45008;DHT22;30743;52.008;5.644;2024-02-15T13:24:00;20.30;99.90
45008;DHT22;30743;52.008;5.644;2024-02-15T13:26:30;20.10;99.90
45008;DHT22;30743;52.008;5.644;2024-02-15T13:28:56;20.20;99.90
45008;DHT22;30743;52.008;5.644;2024-02-15T13:31:21;19.60;99.90
45008;DHT22;30743;52.008;5.644;2024-02-15T13:33:48;20.60;99.90
45008;DHT22;30743;52.008;5.644;2024-02-15T13:36:13;19.50;99.90
45008;DHT22;30743;52.008;5.644;2024-02-15T13:38:41;19.80;99.90
45008;DHT22;30743;52.008;5.644;2024-02-15T13:41:07;19.80;99.90
45008;DHT22;30743;52.008;5.644;2024-02-15T13:43:33;19.60;99.90
45008;DHT22;30743;52.008;5.644;2024-02-15T13:45:59;19.80;99.90
45008;DHT22;30743;52.008;5.644;2024-02-15T13:48:29;19.90;99.90
45008;DHT22;30743;52.008;5.644;2024-02-15T13:50:55;20.40;99.90
45008;DHT22;30743;52.008;5.644;2024-02-15T13:53:21;19.60;99.90
45008;DHT22;30743;52.008;5.644;2024-02-15T13:55:47;19.60;99.90
45008;DHT22;30743;52.008;5.644;2024-02-15T13:58:13;19.70;99.90
45008;DHT22;30743;52.008;5.644;2024-02-15T14:00:40;19.90;99.90
45008;DHT22;30743;52.008;5.644;2024-02-15T14:03:07;20.00;99.90
45008;DHT22;30743;52.008;5.644;2024-02-15T14:05:35;21.00;99.90
45008;DHT22;30743;52.008;5.644;2024-02-15T14:08:03;20.60;99.90
45008;DHT22;30743;52.008;5.644;2024-02-15T14:10:31;20.80;99.90
45008;DHT22;30743;52.008;5.644;2024-02-15T14:12:58;21.10;99.90
45008;DHT22;30743;52.008;5.644;2024-02-15T14:15:25;21.10;99.90
45008;DHT22;30743;52.008;5.644;2024-02-15T14:17:51;21.10;99.90
45008;DHT22;30743;52.008;5.644;2024-02-15T14:20:17;20.90;99.90
45008;DHT22;30743;52.008;5.644;2024-02-15T14:22:46;20.80;99.90
45008;DHT22;30743;52.008;5.644;2024-02-15T14:25:16;20.90;99.90
45008;DHT22;30743;52.008;5.644;2024-02-15T14:27:41;20.80;99.90
45008;DHT22;30743;52.008;5.644;2024-02-15T14:30:08;20.90;99.90
45008;DHT22;30743;52.008;5.644;2024-02-15T14:32:52;20.70;99.90
45008;DHT22;30743;52.008;5.644;2024-02-15T14:35:31;20.80;99.90
45008;DHT22;30743;52.008;5.644;2024-02-15T14:38:00;20.90;99.90
45008;DHT22;30743;52.008;5.644;2024-02-15T14:40:28;21.10;99.90
45008;DHT22;30743;52.008;5.644;2024-02-15T14:42:54;21.20;99.90
45008;DHT22;30743;52.008;5.644;2024-02-15T14:45:20;21.40;99.90
45008;DHT22;30743;52.008;5.644;2024-02-15T14:47:46;21.30;99.90
45008;DHT22;30743;52.008;5.644;2024-02-15T14:50:12;21.00;99.90
45008;DHT22;30743;52.008;5.644;2024-02-15T14:52:39;20.90;99.90
45008;DHT22;30743;52.008;5.644;2024-02-15T14:55:05;20.60;99.90
45008;DHT22;30743;52.008;5.644;2024-02-15T14:57:33;20.60;99.90
45008;DHT22;30743;52.008;5.644;2024-02-15T14:59:59;20.40;99.90
45008;DHT22;30743;52.008;5.644;2024-02-15T15:02:25;20.40;99.90
45008;DHT22;30743;52.008;5.644;2024-02-15T15:04:51;20.10;99.90
45008;DHT22;30743;52.008;5.644;2024-02-15T15:07:43;20.00;99.90
45008;DHT22;30743;52.008;5.644;2024-02-15T15:10:28;20.00;99.90
45008;DHT22;30743;52.008;5.644;2024-02-15T15:13:12;20.10;99.90
45008;DHT22;30743;52.008;5.644;2024-02-15T15:15:38;20.20;99.90
45008;DHT22;30743;52.008;5.644;2024-02-15T15:18:05;20.40;99.90
45008;DHT22;30743;52.008;5.644;2024-02-15T15:20:31;20.50;99.90
45008;DHT22;30743;52.008;5.644;2024-02-15T15:22:58;20.80;99.90
45008;DHT22;30743;52.008;5.644;2024-02-15T15:25:25;20.80;99.90
45008;DHT22;30743;52.008;5.644;2024-02-15T15:27:53;20.90;99.90
45008;DHT22;30743;52.008;5.644;2024-02-15T15:30:19;20.90;99.90
45008;DHT22;30743;52.008;5.644;2024-02-15T15:32:46;21.00;99.90
45008;DHT22;30743;52.008;5.644;2024-02-15T15:35:12;21.10;99.90
45008;DHT22;30743;52.008;5.644;2024-02-15T15:37:38;21.20;99.90
45008;DHT22;30743;52.008;5.644;2024-02-15T15:40:05;21.20;99.90
45008;DHT22;30743;52.008;5.644;2024-02-15T15:42:34;21.30;99.90
45008;DHT22;30743;52.008;5.644;2024-02-15T15:45:03;21.30;99.90
45008;DHT22;30743;52.008;5.644;2024-02-15T15:47:30;21.20;99.90